sensor_id;sensor_type;location;lat;lon;timestamp;temperature;humidity
8269;DHT22;4174;48.304;16.364;2022-09-01T00:00:12;17.40;99.90
8269;DHT22;4174;48.304;16.364;2022-09-01T00:06:16;17.30;99.90
8269;DHT22;4174;48.304;16.364;2022-09-01T00:12:18;17.30;99.90
8269;DHT22;4174;48.304;16.364;2022-09-01T00:18:21;17.20;99.90
8269;DHT22;4174;48.304;16.364;2022-09-01T00:24:24;17.20;99.90
8269;DHT22;4174;48.304;16.364;2022-09-01T00:30:26;17.10;99.90
8269;DHT22;4174;48.304;16.364;2022-09-01T00:36:29;17.10;99.90
8269;DHT22;4174;48.304;16.364;2022-09-01T00:42:32;17.00;99.90
8269;DHT22;4174;48.304;16.364;2022-09-01T00:48:35;16.80;99.90
8269;DHT22;4174;48.304;16.364;2022-09-01T00:54:40;16.80;99.90
8269;DHT22;4174;48.304;16.364;2022-09-01T01:00:40;16.70;99.90
8269;DHT22;4174;48.304;16.364;2022-09-01T01:06:45;16.60;99.90
8269;DHT22;4174;48.304;16.364;2022-09-01T01:12:45;16.50;99.90
8269;DHT22;4174;48.304;16.364;2022-09-01T01:18:48;16.40;99.90
8269;DHT22;4174;48.304;16.364;2022-09-01T01:24:50;16.30;99.90
8269;DHT22;4174;48.304;16.364;2022-09-01T01:30:54;16.30;99.90
8269;DHT22;4174;48.304;16.364;2022-09-01T01:36:56;16.30;99.90
8269;DHT22;4174;48.304;16.364;2022-09-01T01:42:59;16.30;99.90
8269;DHT22;4174;48.304;16.364;2022-09-01T01:49:02;16.40;99.90
8269;DHT22;4174;48.304;16.364;2022-09-01T01:55:06;16.40;99.90
8269;DHT22;4174;48.304;16.364;2022-09-01T02:01:09;16.50;99.90
8269;DHT22;4174;48.304;16.364;2022-09-01T02:07:12;16.60;99.90
8269;DHT22;4174;48.304;16.364;2022-09-01T02:13:15;16.60;99.90
8269;DHT22;4174;48.304;16.364;2022-09-01T02:19:16;16.60;99.90
8269;DHT22;4174;48.304;16.364;2022-09-01T02:25:19;16.60;99.90
8269;DHT22;4174;48.304;16.364;2022-09-01T02:31:22;16.60;99.90
8269;DHT22;4174;48.304;16.364;2022-09-01T02:37:23;16.60;99.90
8269;DHT22;4174;48.304;16.364;2022-09-01T02:43:27;16.60;99.90
8269;DHT22;4174;48.304;16.364;2022-09-01T02:49:30;16.60;99.90
8269;DHT22;4174;48.304;16.364;2022-09-01T02:55:33;16.60;99.90
8269;DHT22;4174;48.304;16.364;2022-09-01T03:01:37;16.60;99.90
8269;DHT22;4174;48.304;16.364;2022-09-01T03:07:39;16.70;99.90
8269;DHT22;4174;48.304;16.364;2022-09-01T03:13:41;16.60;99.90
8269;DHT22;4174;48.304;16.364;2022-09-01T03:19:44;16.70;99.90
8269;DHT22;4174;48.304;16.364;2022-09-01T03:25:46;16.70;99.90
8269;DHT22;4174;48.304;16.364;2022-09-01T03:31:49;16.70;99.90
8269;DHT22;4174;48.304;16.364;2022-09-01T03:37:52;16.70;99.90
8269;DHT22;4174;48.304;16.364;2022-09-01T03:43:54;16.70;99.90
8269;DHT22;4174;48.304;16.364;2022-09-01T03:49:56;16.60;99.90
8269;DHT22;4174;48.304;16.364;2022-09-01T03:55:59;16.70;99.90
8269;DHT22;4174;48.304;16.364;2022-09-01T04:02:02;16.70;99.90
8269;DHT22;4174;48.304;16.364;2022-09-01T04:08:06;16.60;99.90
8269;DHT22;4174;48.304;16.364;2022-09-01T04:14:09;16.60;99.90
8269;DHT22;4174;48.304;16.364;2022-09-01T04:20:11;16.60;99.90
8269;DHT22;4174;48.304;16.364;2022-09-01T04:26:14;16.60;99.90
8269;DHT22;4174;48.304;16.364;2022-09-01T04:32:17;16.60;99.90
8269;DHT22;4174;48.304;16.364;2022-09-01T04:38:20;16.60;99.90
8269;DHT22;4174;48.304;16.364;2022-09-01T04:44:22;16.70;99.90
8269;DHT22;4174;48.304;16.364;2022-09-01T04:50:24;16.70;99.90
8269;DHT22;4174;48.304;16.364;2022-09-01T04:56:26;16.80;99.90
8269;DHT22;4174;48.304;16.364;2022-09-01T05:02:29;17.00;99.90
8269;DHT22;4174;48.304;16.364;2022-09-01T05:08:32;17.10;99.90
8269;DHT22;4174;48.304;16.364;2022-09-01T05:14:37;17.20;99.90
8269;DHT22;4174;48.304;16.364;2022-09-01T05:20:38;17.30;99.90
8269;DHT22;4174;48.304;16.364;2022-09-01T05:26:43;18.00;99.90
8269;DHT22;4174;48.304;16.364;2022-09-01T05:32:45;18.00;99.90
8269;DHT22;4174;48.304;16.364;2022-09-01T05:38:49;18.60;99.90
8269;DHT22;4174;48.304;16.364;2022-09-01T05:44:51;19.10;99.90
8269;DHT22;4174;48.304;16.364;2022-09-01T05:50:54;19.50;99.90
8269;DHT22;4174;48.304;16.364;2022-09-01T05:56:57;19.90;99.90
8269;DHT22;4174;48.304;16.364;2022-09-01T06:02:59;20.00;99.90
8269;DHT22;4174;48.304;16.364;2022-09-01T06:09:01;20.30;99.90
8269;DHT22;4174;48.304;16.364;2022-09-01T06:15:05;20.60;99.90
8269;DHT22;4174;48.304;16.364;2022-09-01T06:21:10;21.40;99.90
8269;DHT22;4174;48.304;16.364;2022-09-01T06:27:11;21.80;99.90
8269;DHT22;4174;48.304;16.364;2022-09-01T06:33:14;22.40;99.90
8269;DHT22;4174;48.304;16.364;2022-09-01T06:39:16;23.30;99.90
8269;DHT22;4174;48.304;16.364;2022-09-01T06:45:21;24.30;99.90
8269;DHT22;4174;48.304;16.364;2022-09-01T06:51:22;23.50;99.90
8269;DHT22;4174;48.304;16.364;2022-09-01T06:57:25;23.80;99.90
8269;DHT22;4174;48.304;16.364;2022-09-01T07:03:27;24.80;99.90
8269;DHT22;4174;48.304;16.364;2022-09-01T07:09:30;25.70;96.50
8269;DHT22;4174;48.304;16.364;2022-09-01T07:15:37;26.20;94.50
8269;DHT22;4174;48.304;16.364;2022-09-01T07:21:40;26.90;90.50
8269;DHT22;4174;48.304;16.364;2022-09-01T07:27:43;27.20;87.80
8269;DHT22;4174;48.304;16.364;2022-09-01T07:33:46;27.70;87.20
8269;DHT22;4174;48.304;16.364;2022-09-01T07:39:49;27.90;79.70
8269;DHT22;4174;48.304;16.364;2022-09-01T07:45:52;28.10;82.20
8269;DHT22;4174;48.304;16.364;2022-09-01T07:51:54;28.70;78.60
8269;DHT22;4174;48.304;16.364;2022-09-01T07:57:56;29.50;77.50
8269;DHT22;4174;48.304;16.364;2022-09-01T08:03:59;30.30;70.80
8269;DHT22;4174;48.304;16.364;2022-09-01T08:10:05;30.50;66.80
8269;DHT22;4174;48.304;16.364;2022-09-01T08:16:10;31.20;58.30
8269;DHT22;4174;48.304;16.364;2022-09-01T08:22:13;31.20;57.60
8269;DHT22;4174;48.304;16.364;2022-09-01T08:28:14;31.70;58.90
8269;DHT22;4174;48.304;16.364;2022-09-01T08:34:18;32.30;53.40
8269;DHT22;4174;48.304;16.364;2022-09-01T08:40:21;32.30;53.40
8269;DHT22;4174;48.304;16.364;2022-09-01T08:46:26;31.60;49.10
8269;DHT22;4174;48.304;16.364;2022-09-01T08:52:32;31.60;49.00
8269;DHT22;4174;48.304;16.364;2022-09-01T08:58:35;32.40;50.20
8269;DHT22;4174;48.304;16.364;2022-09-01T09:10:54;33.50;43.80
8269;DHT22;4174;48.304;16.364;2022-09-01T09:16:57;32.30;45.40
8269;DHT22;4174;48.304;16.364;2022-09-01T09:22:59;30.20;48.30
8269;DHT22;4174;48.304;16.364;2022-09-01T09:29:01;30.10;49.60
8269;DHT22;4174;48.304;16.364;2022-09-01T09:41:26;30.80;52.60
8269;DHT22;4174;48.304;16.364;2022-09-01T09:47:33;31.00;51.60
8269;DHT22;4174;48.304;16.364;2022-09-01T09:53:36;31.10;49.00
8269;DHT22;4174;48.304;16.364;2022-09-01T09:59:43;30.60;47.60
8269;DHT22;4174;48.304;16.364;2022-09-01T10:05:46;29.90;46.00
8269;DHT22;4174;48.304;16.364;2022-09-01T10:11:50;32.10;50.10
8269;DHT22;4174;48.304;16.364;2022-09-01T10:17:53;32.10;50.00
8269;DHT22;4174;48.304;16.364;2022-09-01T10:23:55;31.30;47.40
8269;DHT22;4174;48.304;16.364;2022-09-01T10:30:03;32.10;49.10
8269;DHT22;4174;48.304;16.364;2022-09-01T10:36:05;32.40;43.40
8269;DHT22;4174;48.304;16.364;2022-09-01T10:42:15;32.50;43.50
8269;DHT22;4174;48.304;16.364;2022-09-01T11:00:42;30.50;46.40
8269;DHT22;4174;48.304;16.364;2022-09-01T11:06:51;29.20;50.00
8269;DHT22;4174;48.304;16.364;2022-09-01T11:13:02;30.70;46.20
8269;DHT22;4174;48.304;16.364;2022-09-01T11:31:37;31.20;47.90
8269;DHT22;4174;48.304;16.364;2022-09-01T11:37:39;30.90;45.30
8269;DHT22;4174;48.304;16.364;2022-09-01T11:43:41;31.50;47.50
8269;DHT22;4174;48.304;16.364;2022-09-01T11:49:47;30.30;45.20
8269;DHT22;4174;48.304;16.364;2022-09-01T11:55:56;31.00;48.10
8269;DHT22;4174;48.304;16.364;2022-09-01T12:01:58;30.30;45.70
8269;DHT22;4174;48.304;16.364;2022-09-01T12:08:02;29.60;48.40
8269;DHT22;4174;48.304;16.364;2022-09-01T12:14:05;28.60;49.50
8269;DHT22;4174;48.304;16.364;2022-09-01T12:26:22;30.40;45.00
8269;DHT22;4174;48.304;16.364;2022-09-01T12:32:23;28.40;46.20
8269;DHT22;4174;48.304;16.364;2022-09-01T12:38:28;27.00;51.60
8269;DHT22;4174;48.304;16.364;2022-09-01T12:44:31;28.40;48.20
8269;DHT22;4174;48.304;16.364;2022-09-01T12:50:36;29.80;52.50
8269;DHT22;4174;48.304;16.364;2022-09-01T12:56:38;29.60;45.70
8269;DHT22;4174;48.304;16.364;2022-09-01T13:02:43;29.80;44.10
8269;DHT22;4174;48.304;16.364;2022-09-01T13:08:44;29.80;44.70
8269;DHT22;4174;48.304;16.364;2022-09-01T13:14:47;28.60;45.60
8269;DHT22;4174;48.304;16.364;2022-09-01T13:20:50;27.90;46.00
8269;DHT22;4174;48.304;16.364;2022-09-01T13:26:52;26.90;51.20
8269;DHT22;4174;48.304;16.364;2022-09-01T13:32:55;26.10;47.20
8269;DHT22;4174;48.304;16.364;2022-09-01T13:38:56;26.30;51.50
8269;DHT22;4174;48.304;16.364;2022-09-01T13:44:59;27.10;45.30
8269;DHT22;4174;48.304;16.364;2022-09-01T13:51:03;25.90;48.70
8269;DHT22;4174;48.304;16.364;2022-09-01T13:57:06;25.90;48.70
8269;DHT22;4174;48.304;16.364;2022-09-01T14:03:11;24.90;52.30
8269;DHT22;4174;48.304;16.364;2022-09-01T14:09:12;25.30;52.10
8269;DHT22;4174;48.304;16.364;2022-09-01T14:15:14;25.90;50.40
8269;DHT22;4174;48.304;16.364;2022-09-01T14:21:15;26.50;49.10
8269;DHT22;4174;48.304;16.364;2022-09-01T14:27:18;26.60;49.80
8269;DHT22;4174;48.304;16.364;2022-09-01T14:33:22;26.30;45.20
8269;DHT22;4174;48.304;16.364;2022-09-01T14:39:25;26.00;46.60
8269;DHT22;4174;48.304;16.364;2022-09-01T14:45:28;26.00;46.30
8269;DHT22;4174;48.304;16.364;2022-09-01T14:51:31;25.30;47.30
8269;DHT22;4174;48.304;16.364;2022-09-01T14:57:37;24.70;46.60
8269;DHT22;4174;48.304;16.364;2022-09-01T15:03:40;24.60;46.40
8269;DHT22;4174;48.304;16.364;2022-09-01T15:09:41;24.20;48.40
8269;DHT22;4174;48.304;16.364;2022-09-01T15:15:44;24.00;48.40
8269;DHT22;4174;48.304;16.364;2022-09-01T15:21:48;23.40;49.40
8269;DHT22;4174;48.304;16.364;2022-09-01T15:27:51;23.20;51.00
8269;DHT22;4174;48.304;16.364;2022-09-01T15:33:54;23.10;50.10
8269;DHT22;4174;48.304;16.364;2022-09-01T15:39:56;23.00;49.90
8269;DHT22;4174;48.304;16.364;2022-09-01T15:46:02;22.80;48.90
8269;DHT22;4174;48.304;16.364;2022-09-01T15:52:01;22.60;50.00
8269;DHT22;4174;48.304;16.364;2022-09-01T15:58:06;22.50;50.90
8269;DHT22;4174;48.304;16.364;2022-09-01T16:04:09;22.50;50.30
8269;DHT22;4174;48.304;16.364;2022-09-01T16:10:10;22.30;50.30
8269;DHT22;4174;48.304;16.364;2022-09-01T16:22:30;22.00;51.00
8269;DHT22;4174;48.304;16.364;2022-09-01T16:28:34;21.80;51.20
8269;DHT22;4174;48.304;16.364;2022-09-01T16:34:36;21.70;53.70
8269;DHT22;4174;48.304;16.364;2022-09-01T16:40:42;21.60;52.40
8269;DHT22;4174;48.304;16.364;2022-09-01T16:46:52;21.40;50.70
8269;DHT22;4174;48.304;16.364;2022-09-01T17:05:47;20.90;54.80
8269;DHT22;4174;48.304;16.364;2022-09-01T17:11:52;20.70;55.60
8269;DHT22;4174;48.304;16.364;2022-09-01T17:18:14;20.50;59.10
8269;DHT22;4174;48.304;16.364;2022-09-01T17:24:36;20.30;64.90
8269;DHT22;4174;48.304;16.364;2022-09-01T17:30:39;20.00;58.50
8269;DHT22;4174;48.304;16.364;2022-09-01T17:36:45;19.80;60.30
8269;DHT22;4174;48.304;16.364;2022-09-01T17:42:50;19.60;73.70
8269;DHT22;4174;48.304;16.364;2022-09-01T17:49:01;19.30;77.90
8269;DHT22;4174;48.304;16.364;2022-09-01T17:55:05;19.00;78.50
8269;DHT22;4174;48.304;16.364;2022-09-01T18:07:36;18.60;89.20
8269;DHT22;4174;48.304;16.364;2022-09-01T18:13:44;18.20;86.90
8269;DHT22;4174;48.304;16.364;2022-09-01T18:20:03;18.20;86.70
8269;DHT22;4174;48.304;16.364;2022-09-01T18:26:05;18.10;94.50
8269;DHT22;4174;48.304;16.364;2022-09-01T18:32:08;17.70;97.60
8269;DHT22;4174;48.304;16.364;2022-09-01T18:44:38;17.60;95.80
8269;DHT22;4174;48.304;16.364;2022-09-01T18:50:56;17.20;99.90
8269;DHT22;4174;48.304;16.364;2022-09-01T18:56:58;17.20;99.90
8269;DHT22;4174;48.304;16.364;2022-09-01T19:09:20;16.80;99.90
8269;DHT22;4174;48.304;16.364;2022-09-01T19:15:23;16.60;99.90
8269;DHT22;4174;48.304;16.364;2022-09-01T19:21:24;16.40;99.90
8269;DHT22;4174;48.304;16.364;2022-09-01T19:27:27;16.30;99.90
8269;DHT22;4174;48.304;16.364;2022-09-01T19:33:28;16.10;99.90
8269;DHT22;4174;48.304;16.364;2022-09-01T19:39:31;16.00;99.90
8269;DHT22;4174;48.304;16.364;2022-09-01T19:45:43;15.90;99.90
8269;DHT22;4174;48.304;16.364;2022-09-01T19:51:47;15.80;99.90
8269;DHT22;4174;48.304;16.364;2022-09-01T19:57:54;15.70;99.90
8269;DHT22;4174;48.304;16.364;2022-09-01T20:03:58;15.60;99.90
8269;DHT22;4174;48.304;16.364;2022-09-01T20:10:03;15.50;99.90
8269;DHT22;4174;48.304;16.364;2022-09-01T20:16:27;15.40;99.90
8269;DHT22;4174;48.304;16.364;2022-09-01T20:23:10;15.30;99.90
8269;DHT22;4174;48.304;16.364;2022-09-01T20:29:06;15.20;99.90
8269;DHT22;4174;48.304;16.364;2022-09-01T20:35:12;15.20;99.90
8269;DHT22;4174;48.304;16.364;2022-09-01T20:41:17;15.10;99.90
8269;DHT22;4174;48.304;16.364;2022-09-01T20:47:19;15.10;99.90
8269;DHT22;4174;48.304;16.364;2022-09-01T20:53:32;14.90;99.90
8269;DHT22;4174;48.304;16.364;2022-09-01T20:59:51;14.90;99.90
8269;DHT22;4174;48.304;16.364;2022-09-01T21:06:03;14.70;99.90
8269;DHT22;4174;48.304;16.364;2022-09-01T21:12:06;14.70;99.90
8269;DHT22;4174;48.304;16.364;2022-09-01T21:18:16;14.60;99.90
8269;DHT22;4174;48.304;16.364;2022-09-01T21:24:26;14.50;99.90
8269;DHT22;4174;48.304;16.364;2022-09-01T21:30:30;14.40;99.90
8269;DHT22;4174;48.304;16.364;2022-09-01T21:36:32;14.40;99.90
8269;DHT22;4174;48.304;16.364;2022-09-01T21:42:38;14.40;99.90
8269;DHT22;4174;48.304;16.364;2022-09-01T21:48:40;14.30;99.90
8269;DHT22;4174;48.304;16.364;2022-09-01T21:54:43;14.30;99.90
8269;DHT22;4174;48.304;16.364;2022-09-01T22:00:46;14.20;99.90
8269;DHT22;4174;48.304;16.364;2022-09-01T22:06:49;14.10;99.90
8269;DHT22;4174;48.304;16.364;2022-09-01T22:12:50;14.10;99.90
8269;DHT22;4174;48.304;16.364;2022-09-01T22:18:54;14.00;99.90
8269;DHT22;4174;48.304;16.364;2022-09-01T22:24:58;13.90;99.90
8269;DHT22;4174;48.304;16.364;2022-09-01T22:30:59;13.90;99.90
8269;DHT22;4174;48.304;16.364;2022-09-01T22:37:02;13.80;99.90
8269;DHT22;4174;48.304;16.364;2022-09-01T22:43:06;13.80;99.90
8269;DHT22;4174;48.304;16.364;2022-09-01T22:49:09;13.80;99.90
8269;DHT22;4174;48.304;16.364;2022-09-01T22:55:11;13.70;99.90
8269;DHT22;4174;48.304;16.364;2022-09-01T23:01:15;13.70;99.90
8269;DHT22;4174;48.304;16.364;2022-09-01T23:07:16;13.60;99.90
8269;DHT22;4174;48.304;16.364;2022-09-01T23:13:19;13.50;99.90
8269;DHT22;4174;48.304;16.364;2022-09-01T23:19:22;13.50;99.90
8269;DHT22;4174;48.304;16.364;2022-09-01T23:25:24;13.50;99.90
8269;DHT22;4174;48.304;16.364;2022-09-01T23:31:28;13.40;99.90
8269;DHT22;4174;48.304;16.364;2022-09-01T23:37:29;13.40;99.90
8269;DHT22;4174;48.304;16.364;2022-09-01T23:43:33;13.30;99.90
8269;DHT22;4174;48.304;16.364;2022-09-01T23:49:37;13.30;99.90
8269;DHT22;4174;48.304;16.364;2022-09-01T23:55:40;13.20;99.90
